sensor_id;sensor_type;location;lat;lon;timestamp;P1;durP1;ratioP1;P2;durP2;ratioP2
81036;SDS011;70521;47.468;19.306;2023-10-19T00:02:52;16.13;;;14.82;;
81036;SDS011;70521;47.468;19.306;2023-10-19T00:05:55;15.23;;;13.98;;
81036;SDS011;70521;47.468;19.306;2023-10-19T00:08:56;20.08;;;18.70;;
81036;SDS011;70521;47.468;19.306;2023-10-19T00:12:00;13.60;;;12.45;;
81036;SDS011;70521;47.468;19.306;2023-10-19T00:15:01;17.48;;;16.38;;
81036;SDS011;70521;47.468;19.306;2023-10-19T00:18:04;17.75;;;16.45;;
81036;SDS011;70521;47.468;19.306;2023-10-19T00:21:18;15.43;;;14.02;;
81036;SDS011;70521;47.468;19.306;2023-10-19T00:24:24;19.90;;;18.48;;
81036;SDS011;70521;47.468;19.306;2023-10-19T00:27:25;16.13;;;14.73;;
81036;SDS011;70521;47.468;19.306;2023-10-19T00:30:28;16.77;;;15.45;;
81036;SDS011;70521;47.468;19.306;2023-10-19T00:33:32;16.42;;;15.05;;
81036;SDS011;70521;47.468;19.306;2023-10-19T00:36:33;17.60;;;16.00;;
81036;SDS011;70521;47.468;19.306;2023-10-19T00:39:35;20.92;;;19.00;;
81036;SDS011;70521;47.468;19.306;2023-10-19T00:42:44;22.90;;;21.23;;
81036;SDS011;70521;47.468;19.306;2023-10-19T00:45:47;26.58;;;24.70;;
81036;SDS011;70521;47.468;19.306;2023-10-19T00:48:56;21.33;;;19.63;;
81036;SDS011;70521;47.468;19.306;2023-10-19T00:51:59;18.02;;;16.20;;
81036;SDS011;70521;47.468;19.306;2023-10-19T00:55:04;17.55;;;16.23;;
81036;SDS011;70521;47.468;19.306;2023-10-19T00:58:06;20.35;;;18.55;;
81036;SDS011;70521;47.468;19.306;2023-10-19T01:01:10;20.70;;;18.83;;
81036;SDS011;70521;47.468;19.306;2023-10-19T01:04:11;18.98;;;17.25;;
81036;SDS011;70521;47.468;19.306;2023-10-19T01:07:15;19.50;;;17.80;;
81036;SDS011;70521;47.468;19.306;2023-10-19T01:10:22;23.23;;;21.42;;
81036;SDS011;70521;47.468;19.306;2023-10-19T01:13:24;19.83;;;18.02;;
81036;SDS011;70521;47.468;19.306;2023-10-19T01:16:28;22.50;;;20.58;;
81036;SDS011;70521;47.468;19.306;2023-10-19T01:19:29;22.95;;;20.88;;
81036;SDS011;70521;47.468;19.306;2023-10-19T01:22:30;19.90;;;18.27;;
81036;SDS011;70521;47.468;19.306;2023-10-19T01:25:32;25.33;;;23.00;;
81036;SDS011;70521;47.468;19.306;2023-10-19T01:28:37;21.63;;;19.50;;
81036;SDS011;70521;47.468;19.306;2023-10-19T01:31:41;19.95;;;18.15;;
81036;SDS011;70521;47.468;19.306;2023-10-19T01:35:05;24.70;;;22.67;;
81036;SDS011;70521;47.468;19.306;2023-10-19T01:38:07;22.50;;;20.63;;
81036;SDS011;70521;47.468;19.306;2023-10-19T01:41:09;20.13;;;18.40;;
81036;SDS011;70521;47.468;19.306;2023-10-19T01:44:19;23.88;;;21.88;;
81036;SDS011;70521;47.468;19.306;2023-10-19T01:47:22;20.75;;;18.95;;
81036;SDS011;70521;47.468;19.306;2023-10-19T01:50:23;22.20;;;20.23;;
81036;SDS011;70521;47.468;19.306;2023-10-19T01:53:24;22.38;;;20.25;;
81036;SDS011;70521;47.468;19.306;2023-10-19T01:56:27;21.80;;;19.77;;
81036;SDS011;70521;47.468;19.306;2023-10-19T01:59:28;20.80;;;19.02;;
81036;SDS011;70521;47.468;19.306;2023-10-19T02:02:31;22.95;;;20.88;;
81036;SDS011;70521;47.468;19.306;2023-10-19T02:05:33;22.05;;;20.02;;
81036;SDS011;70521;47.468;19.306;2023-10-19T02:08:40;23.25;;;21.35;;
81036;SDS011;70521;47.468;19.306;2023-10-19T02:11:41;21.10;;;19.30;;
81036;SDS011;70521;47.468;19.306;2023-10-19T02:14:43;19.65;;;17.65;;
81036;SDS011;70521;47.468;19.306;2023-10-19T02:17:44;20.15;;;18.30;;
81036;SDS011;70521;47.468;19.306;2023-10-19T02:20:45;23.77;;;21.60;;
81036;SDS011;70521;47.468;19.306;2023-10-19T02:23:49;23.63;;;21.35;;
81036;SDS011;70521;47.468;19.306;2023-10-19T02:26:54;22.35;;;20.45;;
81036;SDS011;70521;47.468;19.306;2023-10-19T02:29:55;24.17;;;22.25;;
81036;SDS011;70521;47.468;19.306;2023-10-19T02:32:57;19.08;;;17.33;;
81036;SDS011;70521;47.468;19.306;2023-10-19T02:35:58;23.95;;;21.83;;
81036;SDS011;70521;47.468;19.306;2023-10-19T02:39:00;23.98;;;21.77;;
81036;SDS011;70521;47.468;19.306;2023-10-19T02:42:08;21.88;;;19.65;;
81036;SDS011;70521;47.468;19.306;2023-10-19T02:45:09;25.10;;;22.77;;
81036;SDS011;70521;47.468;19.306;2023-10-19T02:48:10;25.17;;;22.38;;
81036;SDS011;70521;47.468;19.306;2023-10-19T02:51:13;26.73;;;24.52;;
81036;SDS011;70521;47.468;19.306;2023-10-19T02:54:15;21.85;;;19.88;;
81036;SDS011;70521;47.468;19.306;2023-10-19T02:57:20;26.13;;;23.63;;
81036;SDS011;70521;47.468;19.306;2023-10-19T03:00:21;26.48;;;23.83;;
81036;SDS011;70521;47.468;19.306;2023-10-19T03:03:22;26.50;;;24.25;;
81036;SDS011;70521;47.468;19.306;2023-10-19T03:06:23;27.80;;;25.05;;
81036;SDS011;70521;47.468;19.306;2023-10-19T03:09:26;22.92;;;21.05;;
81036;SDS011;70521;47.468;19.306;2023-10-19T03:12:27;23.73;;;21.65;;
81036;SDS011;70521;47.468;19.306;2023-10-19T03:15:28;24.00;;;21.90;;
81036;SDS011;70521;47.468;19.306;2023-10-19T03:18:37;26.92;;;24.42;;
81036;SDS011;70521;47.468;19.306;2023-10-19T03:21:39;25.50;;;23.42;;
81036;SDS011;70521;47.468;19.306;2023-10-19T03:24:45;27.85;;;25.67;;
81036;SDS011;70521;47.468;19.306;2023-10-19T03:27:46;28.05;;;25.88;;
81036;SDS011;70521;47.468;19.306;2023-10-19T03:30:47;25.45;;;23.15;;
81036;SDS011;70521;47.468;19.306;2023-10-19T03:33:49;23.95;;;21.63;;
81036;SDS011;70521;47.468;19.306;2023-10-19T03:36:54;29.15;;;27.10;;
81036;SDS011;70521;47.468;19.306;2023-10-19T03:39:55;26.10;;;23.90;;
81036;SDS011;70521;47.468;19.306;2023-10-19T03:42:59;24.40;;;22.17;;
81036;SDS011;70521;47.468;19.306;2023-10-19T03:46:06;23.05;;;20.95;;
81036;SDS011;70521;47.468;19.306;2023-10-19T03:49:19;24.33;;;22.05;;
81036;SDS011;70521;47.468;19.306;2023-10-19T03:52:21;26.92;;;25.00;;
81036;SDS011;70521;47.468;19.306;2023-10-19T03:55:23;28.50;;;26.08;;
81036;SDS011;70521;47.468;19.306;2023-10-19T03:58:24;25.95;;;23.70;;
81036;SDS011;70521;47.468;19.306;2023-10-19T04:01:25;27.50;;;25.30;;
81036;SDS011;70521;47.468;19.306;2023-10-19T04:04:26;22.80;;;20.88;;
81036;SDS011;70521;47.468;19.306;2023-10-19T04:07:29;23.63;;;21.77;;
81036;SDS011;70521;47.468;19.306;2023-10-19T04:10:34;25.85;;;23.90;;
81036;SDS011;70521;47.468;19.306;2023-10-19T04:13:35;23.08;;;21.10;;
81036;SDS011;70521;47.468;19.306;2023-10-19T04:16:37;27.23;;;25.05;;
81036;SDS011;70521;47.468;19.306;2023-10-19T04:19:38;22.75;;;20.63;;
81036;SDS011;70521;47.468;19.306;2023-10-19T04:22:39;31.15;;;28.65;;
81036;SDS011;70521;47.468;19.306;2023-10-19T04:25:40;23.80;;;21.63;;
81036;SDS011;70521;47.468;19.306;2023-10-19T04:28:41;27.92;;;25.70;;
81036;SDS011;70521;47.468;19.306;2023-10-19T04:31:45;27.17;;;24.85;;
81036;SDS011;70521;47.468;19.306;2023-10-19T04:34:55;25.70;;;23.55;;
81036;SDS011;70521;47.468;19.306;2023-10-19T04:37:56;26.92;;;24.60;;
81036;SDS011;70521;47.468;19.306;2023-10-19T04:41:04;28.58;;;26.23;;
81036;SDS011;70521;47.468;19.306;2023-10-19T04:44:08;30.17;;;27.77;;
81036;SDS011;70521;47.468;19.306;2023-10-19T04:47:09;24.15;;;21.95;;
81036;SDS011;70521;47.468;19.306;2023-10-19T04:50:10;22.77;;;20.48;;
81036;SDS011;70521;47.468;19.306;2023-10-19T04:53:11;26.52;;;24.20;;
81036;SDS011;70521;47.468;19.306;2023-10-19T04:56:12;26.10;;;23.80;;
81036;SDS011;70521;47.468;19.306;2023-10-19T04:59:13;25.80;;;23.17;;
81036;SDS011;70521;47.468;19.306;2023-10-19T05:02:14;21.85;;;19.92;;
81036;SDS011;70521;47.468;19.306;2023-10-19T05:05:15;26.25;;;23.95;;
81036;SDS011;70521;47.468;19.306;2023-10-19T05:08:17;25.98;;;23.77;;
81036;SDS011;70521;47.468;19.306;2023-10-19T05:11:18;24.80;;;22.48;;
81036;SDS011;70521;47.468;19.306;2023-10-19T05:14:19;27.08;;;24.88;;
81036;SDS011;70521;47.468;19.306;2023-10-19T05:17:21;27.58;;;25.17;;
81036;SDS011;70521;47.468;19.306;2023-10-19T05:20:24;21.90;;;19.90;;
81036;SDS011;70521;47.468;19.306;2023-10-19T05:23:26;28.08;;;25.55;;
81036;SDS011;70521;47.468;19.306;2023-10-19T05:26:28;25.63;;;23.38;;
81036;SDS011;70521;47.468;19.306;2023-10-19T05:29:31;25.55;;;23.60;;
81036;SDS011;70521;47.468;19.306;2023-10-19T05:32:33;25.42;;;23.20;;
81036;SDS011;70521;47.468;19.306;2023-10-19T05:35:34;33.20;;;30.70;;
81036;SDS011;70521;47.468;19.306;2023-10-19T05:38:41;23.33;;;21.23;;
81036;SDS011;70521;47.468;19.306;2023-10-19T05:41:42;27.58;;;25.23;;
81036;SDS011;70521;47.468;19.306;2023-10-19T05:44:43;22.63;;;20.65;;
81036;SDS011;70521;47.468;19.306;2023-10-19T05:47:44;20.75;;;18.92;;
81036;SDS011;70521;47.468;19.306;2023-10-19T05:50:45;27.23;;;25.33;;
81036;SDS011;70521;47.468;19.306;2023-10-19T05:53:46;21.45;;;19.48;;
81036;SDS011;70521;47.468;19.306;2023-10-19T05:56:47;22.58;;;20.42;;
81036;SDS011;70521;47.468;19.306;2023-10-19T05:59:49;22.88;;;20.90;;
81036;SDS011;70521;47.468;19.306;2023-10-19T06:02:50;24.38;;;22.38;;
81036;SDS011;70521;47.468;19.306;2023-10-19T06:05:52;25.23;;;23.27;;
81036;SDS011;70521;47.468;19.306;2023-10-19T06:08:57;19.90;;;18.17;;
81036;SDS011;70521;47.468;19.306;2023-10-19T06:11:57;24.77;;;22.45;;
81036;SDS011;70521;47.468;19.306;2023-10-19T06:14:58;24.20;;;22.38;;
81036;SDS011;70521;47.468;19.306;2023-10-19T06:18:01;24.42;;;22.60;;
81036;SDS011;70521;47.468;19.306;2023-10-19T06:21:02;24.25;;;22.45;;
81036;SDS011;70521;47.468;19.306;2023-10-19T06:24:04;21.08;;;19.35;;
81036;SDS011;70521;47.468;19.306;2023-10-19T06:27:05;27.08;;;24.95;;
81036;SDS011;70521;47.468;19.306;2023-10-19T06:30:06;26.50;;;24.50;;
81036;SDS011;70521;47.468;19.306;2023-10-19T06:33:09;20.25;;;18.35;;
81036;SDS011;70521;47.468;19.306;2023-10-19T06:36:10;20.40;;;18.75;;
81036;SDS011;70521;47.468;19.306;2023-10-19T06:39:11;21.80;;;19.90;;
81036;SDS011;70521;47.468;19.306;2023-10-19T06:42:14;20.90;;;19.15;;
81036;SDS011;70521;47.468;19.306;2023-10-19T06:45:15;21.65;;;19.83;;
81036;SDS011;70521;47.468;19.306;2023-10-19T06:48:17;25.42;;;23.42;;
81036;SDS011;70521;47.468;19.306;2023-10-19T06:51:18;24.20;;;22.00;;
81036;SDS011;70521;47.468;19.306;2023-10-19T06:54:19;28.65;;;25.92;;
81036;SDS011;70521;47.468;19.306;2023-10-19T06:57:20;35.03;;;31.35;;
81036;SDS011;70521;47.468;19.306;2023-10-19T07:00:22;33.92;;;30.23;;
81036;SDS011;70521;47.468;19.306;2023-10-19T07:03:23;24.90;;;22.65;;
81036;SDS011;70521;47.468;19.306;2023-10-19T07:06:24;26.00;;;23.75;;
81036;SDS011;70521;47.468;19.306;2023-10-19T07:09:26;26.83;;;24.42;;
81036;SDS011;70521;47.468;19.306;2023-10-19T07:12:27;25.55;;;23.52;;
81036;SDS011;70521;47.468;19.306;2023-10-19T07:15:28;19.55;;;17.80;;
81036;SDS011;70521;47.468;19.306;2023-10-19T07:18:30;21.23;;;19.00;;
81036;SDS011;70521;47.468;19.306;2023-10-19T07:21:31;26.95;;;24.73;;
81036;SDS011;70521;47.468;19.306;2023-10-19T07:24:36;22.02;;;19.92;;
81036;SDS011;70521;47.468;19.306;2023-10-19T07:27:39;21.23;;;19.33;;
81036;SDS011;70521;47.468;19.306;2023-10-19T07:30:43;22.25;;;20.13;;
81036;SDS011;70521;47.468;19.306;2023-10-19T07:33:44;24.70;;;22.60;;
81036;SDS011;70521;47.468;19.306;2023-10-19T07:36:50;24.02;;;21.92;;
81036;SDS011;70521;47.468;19.306;2023-10-19T07:39:52;20.20;;;18.23;;
81036;SDS011;70521;47.468;19.306;2023-10-19T07:42:53;23.00;;;20.98;;
81036;SDS011;70521;47.468;19.306;2023-10-19T07:45:55;22.15;;;20.05;;
81036;SDS011;70521;47.468;19.306;2023-10-19T07:48:57;23.48;;;21.40;;
81036;SDS011;70521;47.468;19.306;2023-10-19T07:52:00;20.02;;;18.23;;
81036;SDS011;70521;47.468;19.306;2023-10-19T07:55:01;20.80;;;19.10;;
81036;SDS011;70521;47.468;19.306;2023-10-19T07:58:03;22.60;;;20.65;;
81036;SDS011;70521;47.468;19.306;2023-10-19T08:01:04;21.40;;;19.67;;
81036;SDS011;70521;47.468;19.306;2023-10-19T08:04:06;24.17;;;22.05;;
81036;SDS011;70521;47.468;19.306;2023-10-19T08:07:07;21.58;;;19.45;;
81036;SDS011;70521;47.468;19.306;2023-10-19T08:10:11;23.70;;;21.75;;
81036;SDS011;70521;47.468;19.306;2023-10-19T08:13:12;20.30;;;18.33;;
81036;SDS011;70521;47.468;19.306;2023-10-19T08:16:13;22.08;;;19.85;;
81036;SDS011;70521;47.468;19.306;2023-10-19T08:19:14;22.35;;;20.02;;
81036;SDS011;70521;47.468;19.306;2023-10-19T08:22:16;22.40;;;20.30;;
81036;SDS011;70521;47.468;19.306;2023-10-19T08:25:17;28.23;;;25.33;;
81036;SDS011;70521;47.468;19.306;2023-10-19T08:28:18;27.25;;;24.42;;
81036;SDS011;70521;47.468;19.306;2023-10-19T08:31:19;29.92;;;27.20;;
81036;SDS011;70521;47.468;19.306;2023-10-19T08:34:20;28.98;;;26.80;;
81036;SDS011;70521;47.468;19.306;2023-10-19T08:37:21;24.83;;;22.42;;
81036;SDS011;70521;47.468;19.306;2023-10-19T08:40:22;21.83;;;19.90;;
81036;SDS011;70521;47.468;19.306;2023-10-19T08:43:25;24.65;;;22.15;;
81036;SDS011;70521;47.468;19.306;2023-10-19T08:46:26;22.10;;;19.85;;
81036;SDS011;70521;47.468;19.306;2023-10-19T08:49:27;24.67;;;22.40;;
81036;SDS011;70521;47.468;19.306;2023-10-19T08:52:28;26.73;;;24.48;;
81036;SDS011;70521;47.468;19.306;2023-10-19T08:55:30;25.25;;;23.05;;
81036;SDS011;70521;47.468;19.306;2023-10-19T08:58:31;23.40;;;21.15;;
81036;SDS011;70521;47.468;19.306;2023-10-19T09:01:32;19.17;;;17.23;;
81036;SDS011;70521;47.468;19.306;2023-10-19T09:04:42;19.10;;;17.50;;
81036;SDS011;70521;47.468;19.306;2023-10-19T09:07:44;25.83;;;23.63;;
81036;SDS011;70521;47.468;19.306;2023-10-19T09:10:48;23.17;;;20.90;;
81036;SDS011;70521;47.468;19.306;2023-10-19T09:13:51;22.10;;;19.75;;
81036;SDS011;70521;47.468;19.306;2023-10-19T09:16:53;23.40;;;21.33;;
81036;SDS011;70521;47.468;19.306;2023-10-19T09:19:57;24.27;;;20.08;;
81036;SDS011;70521;47.468;19.306;2023-10-19T09:23:00;22.33;;;20.35;;
81036;SDS011;70521;47.468;19.306;2023-10-19T09:26:02;22.30;;;20.13;;
81036;SDS011;70521;47.468;19.306;2023-10-19T09:29:04;21.67;;;19.60;;
81036;SDS011;70521;47.468;19.306;2023-10-19T09:32:05;21.23;;;19.10;;
81036;SDS011;70521;47.468;19.306;2023-10-19T09:35:06;27.05;;;22.88;;
81036;SDS011;70521;47.468;19.306;2023-10-19T09:38:09;16.73;;;15.02;;
81036;SDS011;70521;47.468;19.306;2023-10-19T09:41:11;18.75;;;16.95;;
81036;SDS011;70521;47.468;19.306;2023-10-19T09:44:13;19.02;;;16.02;;
81036;SDS011;70521;47.468;19.306;2023-10-19T09:47:22;19.70;;;17.30;;
81036;SDS011;70521;47.468;19.306;2023-10-19T09:50:27;19.15;;;17.15;;
81036;SDS011;70521;47.468;19.306;2023-10-19T09:53:28;16.55;;;15.00;;
81036;SDS011;70521;47.468;19.306;2023-10-19T09:56:32;15.95;;;14.55;;
81036;SDS011;70521;47.468;19.306;2023-10-19T09:59:38;14.52;;;13.02;;
81036;SDS011;70521;47.468;19.306;2023-10-19T10:02:43;16.00;;;14.40;;
81036;SDS011;70521;47.468;19.306;2023-10-19T10:05:47;16.17;;;14.10;;
81036;SDS011;70521;47.468;19.306;2023-10-19T10:08:48;15.15;;;13.73;;
81036;SDS011;70521;47.468;19.306;2023-10-19T10:11:49;16.95;;;15.25;;
81036;SDS011;70521;47.468;19.306;2023-10-19T10:14:57;18.45;;;16.75;;
81036;SDS011;70521;47.468;19.306;2023-10-19T10:18:11;18.58;;;16.77;;
81036;SDS011;70521;47.468;19.306;2023-10-19T10:24:20;20.23;;;18.15;;
81036;SDS011;70521;47.468;19.306;2023-10-19T10:27:22;18.80;;;16.90;;
81036;SDS011;70521;47.468;19.306;2023-10-19T10:30:24;22.52;;;20.38;;
81036;SDS011;70521;47.468;19.306;2023-10-19T10:34:08;20.70;;;18.52;;
81036;SDS011;70521;47.468;19.306;2023-10-19T10:36:57;22.13;;;20.08;;
81036;SDS011;70521;47.468;19.306;2023-10-19T10:39:59;23.27;;;21.20;;
81036;SDS011;70521;47.468;19.306;2023-10-19T10:43:07;23.13;;;20.77;;
81036;SDS011;70521;47.468;19.306;2023-10-19T10:46:08;21.77;;;19.73;;
81036;SDS011;70521;47.468;19.306;2023-10-19T10:49:09;23.90;;;21.55;;
81036;SDS011;70521;47.468;19.306;2023-10-19T10:52:10;21.98;;;19.88;;
81036;SDS011;70521;47.468;19.306;2023-10-19T10:55:14;23.77;;;21.38;;
81036;SDS011;70521;47.468;19.306;2023-10-19T10:58:16;24.10;;;21.83;;
81036;SDS011;70521;47.468;19.306;2023-10-19T11:01:50;21.65;;;19.65;;
81036;SDS011;70521;47.468;19.306;2023-10-19T11:04:45;24.60;;;22.27;;
81036;SDS011;70521;47.468;19.306;2023-10-19T11:08:06;22.42;;;20.10;;
81036;SDS011;70521;47.468;19.306;2023-10-19T11:11:08;22.95;;;20.75;;
81036;SDS011;70521;47.468;19.306;2023-10-19T11:14:12;24.30;;;21.90;;
81036;SDS011;70521;47.468;19.306;2023-10-19T11:17:13;25.85;;;23.40;;
81036;SDS011;70521;47.468;19.306;2023-10-19T11:20:25;24.83;;;22.35;;
81036;SDS011;70521;47.468;19.306;2023-10-19T11:26:58;23.52;;;20.98;;
81036;SDS011;70521;47.468;19.306;2023-10-19T11:29:59;22.92;;;20.83;;
81036;SDS011;70521;47.468;19.306;2023-10-19T11:33:05;23.00;;;20.70;;
81036;SDS011;70521;47.468;19.306;2023-10-19T11:36:06;23.90;;;21.50;;
81036;SDS011;70521;47.468;19.306;2023-10-19T11:39:07;22.88;;;20.85;;
81036;SDS011;70521;47.468;19.306;2023-10-19T11:42:12;22.38;;;20.17;;
81036;SDS011;70521;47.468;19.306;2023-10-19T11:45:14;22.27;;;20.00;;
81036;SDS011;70521;47.468;19.306;2023-10-19T11:48:17;21.80;;;19.67;;
81036;SDS011;70521;47.468;19.306;2023-10-19T11:51:18;23.98;;;21.60;;
81036;SDS011;70521;47.468;19.306;2023-10-19T11:54:19;24.02;;;21.67;;
81036;SDS011;70521;47.468;19.306;2023-10-19T11:57:20;22.25;;;19.98;;
81036;SDS011;70521;47.468;19.306;2023-10-19T12:00:21;23.10;;;20.75;;
81036;SDS011;70521;47.468;19.306;2023-10-19T12:03:24;21.75;;;19.52;;
81036;SDS011;70521;47.468;19.306;2023-10-19T12:06:26;20.25;;;18.40;;
81036;SDS011;70521;47.468;19.306;2023-10-19T12:09:27;18.15;;;16.40;;
81036;SDS011;70521;47.468;19.306;2023-10-19T12:12:29;20.60;;;18.67;;
81036;SDS011;70521;47.468;19.306;2023-10-19T12:15:30;21.48;;;19.35;;
81036;SDS011;70521;47.468;19.306;2023-10-19T12:18:31;21.52;;;19.58;;
81036;SDS011;70521;47.468;19.306;2023-10-19T12:21:32;21.58;;;19.40;;
81036;SDS011;70521;47.468;19.306;2023-10-19T12:24:33;20.85;;;18.80;;
81036;SDS011;70521;47.468;19.306;2023-10-19T12:27:34;22.88;;;20.70;;
81036;SDS011;70521;47.468;19.306;2023-10-19T12:30:39;19.83;;;17.98;;
81036;SDS011;70521;47.468;19.306;2023-10-19T12:33:41;21.15;;;19.13;;
81036;SDS011;70521;47.468;19.306;2023-10-19T12:36:42;20.13;;;18.02;;
81036;SDS011;70521;47.468;19.306;2023-10-19T12:39:47;20.55;;;18.65;;
81036;SDS011;70521;47.468;19.306;2023-10-19T12:42:50;19.75;;;17.85;;
81036;SDS011;70521;47.468;19.306;2023-10-19T12:45:51;19.52;;;17.50;;
81036;SDS011;70521;47.468;19.306;2023-10-19T12:48:56;21.33;;;19.17;;
81036;SDS011;70521;47.468;19.306;2023-10-19T12:51:58;21.83;;;19.38;;
81036;SDS011;70521;47.468;19.306;2023-10-19T12:55:01;19.42;;;17.42;;
81036;SDS011;70521;47.468;19.306;2023-10-19T12:58:05;20.00;;;18.20;;
81036;SDS011;70521;47.468;19.306;2023-10-19T13:01:10;19.30;;;17.33;;
81036;SDS011;70521;47.468;19.306;2023-10-19T13:04:20;18.55;;;16.77;;
81036;SDS011;70521;47.468;19.306;2023-10-19T13:07:24;19.80;;;17.75;;
81036;SDS011;70521;47.468;19.306;2023-10-19T13:10:30;21.48;;;18.30;;
81036;SDS011;70521;47.468;19.306;2023-10-19T13:13:34;18.50;;;16.50;;
81036;SDS011;70521;47.468;19.306;2023-10-19T13:16:38;20.25;;;18.35;;
81036;SDS011;70521;47.468;19.306;2023-10-19T13:19:39;20.10;;;18.05;;
81036;SDS011;70521;47.468;19.306;2023-10-19T13:22:40;18.55;;;16.70;;
81036;SDS011;70521;47.468;19.306;2023-10-19T13:25:42;21.67;;;19.48;;
81036;SDS011;70521;47.468;19.306;2023-10-19T13:28:58;19.77;;;17.77;;
81036;SDS011;70521;47.468;19.306;2023-10-19T13:32:00;20.45;;;18.25;;
81036;SDS011;70521;47.468;19.306;2023-10-19T13:35:01;20.60;;;18.60;;
81036;SDS011;70521;47.468;19.306;2023-10-19T13:38:03;21.33;;;17.73;;
81036;SDS011;70521;47.468;19.306;2023-10-19T13:41:05;20.88;;;18.88;;
81036;SDS011;70521;47.468;19.306;2023-10-19T13:44:10;20.50;;;17.98;;
81036;SDS011;70521;47.468;19.306;2023-10-19T13:47:12;20.63;;;18.52;;
81036;SDS011;70521;47.468;19.306;2023-10-19T13:50:13;23.50;;;21.15;;
81036;SDS011;70521;47.468;19.306;2023-10-19T13:53:15;22.70;;;19.65;;
81036;SDS011;70521;47.468;19.306;2023-10-19T13:56:16;22.65;;;20.05;;
81036;SDS011;70521;47.468;19.306;2023-10-19T13:59:17;22.50;;;20.10;;
81036;SDS011;70521;47.468;19.306;2023-10-19T14:02:18;24.23;;;20.98;;
81036;SDS011;70521;47.468;19.306;2023-10-19T14:05:20;25.00;;;22.33;;
81036;SDS011;70521;47.468;19.306;2023-10-19T14:08:21;22.80;;;20.40;;
81036;SDS011;70521;47.468;19.306;2023-10-19T14:11:22;23.75;;;20.80;;
81036;SDS011;70521;47.468;19.306;2023-10-19T14:14:24;22.05;;;19.70;;
81036;SDS011;70521;47.468;19.306;2023-10-19T14:17:25;23.73;;;21.08;;
81036;SDS011;70521;47.468;19.306;2023-10-19T14:20:28;25.50;;;20.15;;
81036;SDS011;70521;47.468;19.306;2023-10-19T14:23:29;23.70;;;21.27;;
81036;SDS011;70521;47.468;19.306;2023-10-19T14:26:30;23.80;;;20.55;;
81036;SDS011;70521;47.468;19.306;2023-10-19T14:29:31;29.40;;;23.83;;
81036;SDS011;70521;47.468;19.306;2023-10-19T14:32:32;27.60;;;21.38;;
81036;SDS011;70521;47.468;19.306;2023-10-19T14:35:33;25.25;;;21.67;;
81036;SDS011;70521;47.468;19.306;2023-10-19T14:38:37;29.92;;;22.23;;
81036;SDS011;70521;47.468;19.306;2023-10-19T14:41:40;28.73;;;23.02;;
81036;SDS011;70521;47.468;19.306;2023-10-19T14:44:41;23.13;;;20.63;;
81036;SDS011;70521;47.468;19.306;2023-10-19T14:47:45;24.77;;;21.27;;
81036;SDS011;70521;47.468;19.306;2023-10-19T14:50:46;23.65;;;20.88;;
81036;SDS011;70521;47.468;19.306;2023-10-19T14:53:48;27.55;;;21.52;;
81036;SDS011;70521;47.468;19.306;2023-10-19T14:56:49;24.88;;;22.38;;
81036;SDS011;70521;47.468;19.306;2023-10-19T14:59:50;24.27;;;21.70;;
81036;SDS011;70521;47.468;19.306;2023-10-19T15:02:51;29.40;;;26.33;;
81036;SDS011;70521;47.468;19.306;2023-10-19T15:05:55;23.80;;;21.25;;
81036;SDS011;70521;47.468;19.306;2023-10-19T15:08:56;24.30;;;21.75;;
81036;SDS011;70521;47.468;19.306;2023-10-19T15:11:58;24.95;;;22.38;;
81036;SDS011;70521;47.468;19.306;2023-10-19T15:14:59;23.88;;;21.30;;
81036;SDS011;70521;47.468;19.306;2023-10-19T15:18:00;22.83;;;19.73;;
81036;SDS011;70521;47.468;19.306;2023-10-19T15:21:07;25.50;;;20.23;;
81036;SDS011;70521;47.468;19.306;2023-10-19T15:24:09;23.08;;;20.67;;
81036;SDS011;70521;47.468;19.306;2023-10-19T15:27:10;24.88;;;22.20;;
81036;SDS011;70521;47.468;19.306;2023-10-19T15:30:12;25.23;;;22.52;;
81036;SDS011;70521;47.468;19.306;2023-10-19T15:33:13;26.42;;;22.60;;
81036;SDS011;70521;47.468;19.306;2023-10-19T15:36:15;25.45;;;22.75;;
81036;SDS011;70521;47.468;19.306;2023-10-19T15:39:16;25.25;;;22.50;;
81036;SDS011;70521;47.468;19.306;2023-10-19T15:42:19;25.98;;;23.35;;
81036;SDS011;70521;47.468;19.306;2023-10-19T15:45:20;26.13;;;22.65;;
81036;SDS011;70521;47.468;19.306;2023-10-19T15:48:22;28.10;;;21.88;;
81036;SDS011;70521;47.468;19.306;2023-10-19T15:51:24;23.52;;;21.08;;
81036;SDS011;70521;47.468;19.306;2023-10-19T15:54:25;24.13;;;21.70;;
81036;SDS011;70521;47.468;19.306;2023-10-19T15:57:28;24.25;;;21.60;;
81036;SDS011;70521;47.468;19.306;2023-10-19T16:00:31;24.35;;;21.60;;
81036;SDS011;70521;47.468;19.306;2023-10-19T16:03:32;22.20;;;19.90;;
81036;SDS011;70521;47.468;19.306;2023-10-19T16:06:33;25.40;;;20.60;;
81036;SDS011;70521;47.468;19.306;2023-10-19T16:09:35;22.00;;;19.60;;
81036;SDS011;70521;47.468;19.306;2023-10-19T16:12:39;23.85;;;20.73;;
81036;SDS011;70521;47.468;19.306;2023-10-19T16:15:40;22.65;;;20.35;;
81036;SDS011;70521;47.468;19.306;2023-10-19T16:18:43;26.25;;;23.77;;
81036;SDS011;70521;47.468;19.306;2023-10-19T16:21:44;22.58;;;20.40;;
81036;SDS011;70521;47.468;19.306;2023-10-19T16:24:45;19.33;;;17.50;;
81036;SDS011;70521;47.468;19.306;2023-10-19T16:27:46;19.15;;;16.90;;
81036;SDS011;70521;47.468;19.306;2023-10-19T16:30:47;17.65;;;15.95;;
81036;SDS011;70521;47.468;19.306;2023-10-19T16:33:49;20.33;;;18.42;;
81036;SDS011;70521;47.468;19.306;2023-10-19T16:36:50;19.50;;;16.67;;
81036;SDS011;70521;47.468;19.306;2023-10-19T16:39:52;18.17;;;16.38;;
81036;SDS011;70521;47.468;19.306;2023-10-19T16:42:53;17.95;;;16.05;;
81036;SDS011;70521;47.468;19.306;2023-10-19T16:45:55;16.70;;;15.10;;
81036;SDS011;70521;47.468;19.306;2023-10-19T16:48:59;16.67;;;14.82;;
81036;SDS011;70521;47.468;19.306;2023-10-19T16:52:01;16.20;;;14.63;;
81036;SDS011;70521;47.468;19.306;2023-10-19T16:55:06;13.90;;;12.60;;
81036;SDS011;70521;47.468;19.306;2023-10-19T16:58:09;17.00;;;14.95;;
81036;SDS011;70521;47.468;19.306;2023-10-19T17:01:11;15.27;;;13.63;;
81036;SDS011;70521;47.468;19.306;2023-10-19T17:04:13;15.65;;;14.05;;
81036;SDS011;70521;47.468;19.306;2023-10-19T17:07:15;14.20;;;12.82;;
81036;SDS011;70521;47.468;19.306;2023-10-19T17:10:16;15.95;;;14.45;;
81036;SDS011;70521;47.468;19.306;2023-10-19T17:13:18;17.73;;;15.98;;
81036;SDS011;70521;47.468;19.306;2023-10-19T17:16:20;15.10;;;13.45;;
81036;SDS011;70521;47.468;19.306;2023-10-19T17:19:25;15.15;;;13.63;;
81036;SDS011;70521;47.468;19.306;2023-10-19T17:22:31;13.40;;;12.25;;
81036;SDS011;70521;47.468;19.306;2023-10-19T17:25:36;15.00;;;13.50;;
81036;SDS011;70521;47.468;19.306;2023-10-19T17:28:38;15.05;;;13.48;;
81036;SDS011;70521;47.468;19.306;2023-10-19T17:31:40;15.32;;;13.85;;
81036;SDS011;70521;47.468;19.306;2023-10-19T17:34:42;13.95;;;12.60;;
81036;SDS011;70521;47.468;19.306;2023-10-19T17:37:45;15.10;;;12.82;;
81036;SDS011;70521;47.468;19.306;2023-10-19T17:40:46;14.35;;;13.00;;